BAW616 EGLL-LIRP
Flight info
| Callsign | BAW616 |
|---|---|
| Flight time | 1h 43m |
| Altitude | 39000 |
| Route | MODMI M185 MID L612 BOGNA UL612 VEULE DCT TEPRI DCT POGZI DCT GELTA DCT LUVAL DCT SHARA/N0450F350 DCT DEVDI DCT ODINA DCT SRN DCT ROBAS DCT OSBUL DCT EKPAL DCT MIVKI |
| Aircraft | A320/M-SDE3FGIJ1KRWXY/SB1 |
Departure
| Time | 2026-04-23 16:07 |
|---|---|
| Airport | London Heathrow Airport (EGLL) |
Arrival
| Time | 2026-04-23 17:50 |
|---|---|
| Airport | Pisa International Airport (LIRP) |
| Time | Latitude | Longitude | Altitude | Speed | Heading |
|---|---|---|---|---|---|
| 2026-04-23 15:46 | 51.46929 | -0.48576 | 89 ft | 0 kts | 360° |
| 2026-04-23 16:00 | 51.46915 | -0.48575 | 89 ft | 2 kts | 360° |
| 2026-04-23 16:00 | 51.46898 | -0.48575 | 87 ft | 3 kts | 360° |
| 2026-04-23 16:00 | 51.46881 | -0.48575 | 87 ft | 2 kts | 360° |
| 2026-04-23 16:01 | 51.46863 | -0.48574 | 87 ft | 3 kts | 336° |
| 2026-04-23 16:01 | 51.46852 | -0.48565 | 87 ft | 0 kts | 311° |
| 2026-04-23 16:02 | 51.46862 | -0.48581 | 91 ft | 12 kts | 312° |
| 2026-04-23 16:03 | 51.46874 | -0.48631 | 88 ft | 0 kts | 277° |
| 2026-04-23 16:04 | 51.46874 | -0.48632 | 88 ft | 1 kts | 277° |
| 2026-04-23 16:05 | 51.46875 | -0.48652 | 87 ft | 5 kts | 272° |
| 2026-04-23 16:05 | 51.46834 | -0.48753 | 89 ft | 11 kts | 181° |
| 2026-04-23 16:05 | 51.46806 | -0.48753 | 88 ft | 2 kts | 179° |
| 2026-04-23 16:05 | 51.46743 | -0.48752 | 88 ft | 15 kts | 179° |
| 2026-04-23 16:06 | 51.46634 | -0.48759 | 87 ft | 16 kts | 201° |
| 2026-04-23 16:06 | 51.46518 | -0.48779 | 88 ft | 17 kts | 159° |
| 2026-04-23 16:06 | 51.46477 | -0.48621 | 88 ft | 17 kts | 92° |
| 2026-04-23 16:06 | 51.46475 | -0.48251 | 90 ft | 64 kts | 89° |
| 2026-04-23 16:07 | 51.46481 | -0.47208 | 87 ft | 120 kts | 89° |
| 2026-04-23 16:07 | 51.46476 | -0.45630 | 151 ft | 156 kts | 91° |
| 2026-04-23 16:07 | 51.46482 | -0.43925 | 834 ft | 158 kts | 90° |
| 2026-04-23 16:07 | 51.46478 | -0.42046 | 1302 ft | 180 kts | 96° |
| 2026-04-23 16:08 | 51.45908 | -0.40114 | 1661 ft | 208 kts | 121° |
| 2026-04-23 16:08 | 51.44975 | -0.38171 | 2126 ft | 235 kts | 131° |
| 2026-04-23 16:08 | 51.43598 | -0.36580 | 3010 ft | 249 kts | 151° |
| 2026-04-23 16:08 | 51.41934 | -0.35741 | 3931 ft | 258 kts | 167° |
| 2026-04-23 16:09 | 51.40091 | -0.35703 | 4935 ft | 267 kts | 185° |
| 2026-04-23 16:09 | 51.38955 | -0.36142 | 5495 ft | 273 kts | 197° |
| 2026-04-23 16:09 | 51.37589 | -0.37171 | 6235 ft | 277 kts | 205° |
| 2026-04-23 16:09 | 51.36522 | -0.38052 | 6814 ft | 280 kts | 204° |
| 2026-04-23 16:10 | 51.34776 | -0.39490 | 7677 ft | 284 kts | 204° |
| 2026-04-23 16:10 | 51.33012 | -0.40943 | 8531 ft | 288 kts | 204° |
| 2026-04-23 16:10 | 51.31198 | -0.42423 | 9427 ft | 293 kts | 204° |
| 2026-04-23 16:10 | 51.29374 | -0.43865 | 10290 ft | 297 kts | 203° |
| 2026-04-23 16:11 | 51.27475 | -0.45339 | 10798 ft | 313 kts | 203° |
| 2026-04-23 16:11 | 51.25431 | -0.46929 | 11081 ft | 337 kts | 203° |
| 2026-04-23 16:11 | 51.23276 | -0.48624 | 11555 ft | 351 kts | 203° |
| 2026-04-23 16:11 | 51.21064 | -0.50369 | 12299 ft | 357 kts | 203° |
| 2026-04-23 16:12 | 51.18820 | -0.52126 | 13077 ft | 361 kts | 203° |
| 2026-04-23 16:12 | 51.16539 | -0.53893 | 13842 ft | 366 kts | 203° |
| 2026-04-23 16:12 | 51.14264 | -0.55649 | 14564 ft | 370 kts | 203° |
| 2026-04-23 16:12 | 51.11926 | -0.57455 | 15310 ft | 373 kts | 203° |
| 2026-04-23 16:13 | 51.09522 | -0.59056 | 16032 ft | 373 kts | 193° |
| 2026-04-23 16:13 | 51.04410 | -0.59561 | 17417 ft | 370 kts | 167° |
| 2026-04-23 16:13 | 51.01961 | -0.58422 | 18100 ft | 370 kts | 154° |
| 2026-04-23 16:14 | 50.99705 | -0.56414 | 18777 ft | 370 kts | 143° |
| 2026-04-23 16:14 | 50.97590 | -0.54127 | 19384 ft | 373 kts | 144° |
| 2026-04-23 16:14 | 50.95413 | -0.51802 | 20023 ft | 377 kts | 144° |
| 2026-04-23 16:14 | 50.93210 | -0.49468 | 20664 ft | 380 kts | 144° |
| 2026-04-23 16:15 | 50.91027 | -0.47158 | 21281 ft | 384 kts | 144° |
| 2026-04-23 16:15 | 50.88766 | -0.44765 | 21889 ft | 388 kts | 144° |
| 2026-04-23 16:15 | 50.86540 | -0.42408 | 22488 ft | 391 kts | 144° |
| 2026-04-23 16:15 | 50.84260 | -0.39993 | 23065 ft | 395 kts | 144° |
| 2026-04-23 16:16 | 50.82151 | -0.37765 | 23595 ft | 398 kts | 144° |
| 2026-04-23 16:16 | 50.79830 | -0.35309 | 24167 ft | 402 kts | 145° |
| 2026-04-23 16:16 | 50.77508 | -0.32853 | 24665 ft | 405 kts | 145° |
| 2026-04-23 16:16 | 50.75155 | -0.30376 | 25150 ft | 409 kts | 145° |
| 2026-04-23 16:17 | 50.72757 | -0.27857 | 25624 ft | 413 kts | 145° |
| 2026-04-23 16:17 | 50.70371 | -0.25353 | 26122 ft | 417 kts | 146° |
| 2026-04-23 16:17 | 50.67926 | -0.22785 | 26609 ft | 420 kts | 146° |
| 2026-04-23 16:17 | 50.65490 | -0.20227 | 27065 ft | 424 kts | 146° |
| 2026-04-23 16:18 | 50.63041 | -0.17658 | 27528 ft | 428 kts | 146° |
| 2026-04-23 16:18 | 50.60541 | -0.15035 | 27984 ft | 432 kts | 146° |
| 2026-04-23 16:18 | 50.58053 | -0.12427 | 28444 ft | 435 kts | 146° |
| 2026-04-23 16:18 | 50.55505 | -0.09764 | 28863 ft | 439 kts | 146° |
| 2026-04-23 16:19 | 50.52928 | -0.07078 | 29295 ft | 443 kts | 146° |
| 2026-04-23 16:19 | 50.50369 | -0.04415 | 29706 ft | 446 kts | 146° |
| 2026-04-23 16:19 | 50.47796 | -0.01740 | 30127 ft | 448 kts | 146° |
| 2026-04-23 16:19 | 50.45171 | 0.00985 | 30645 ft | 448 kts | 147° |
| 2026-04-23 16:20 | 50.42568 | 0.03675 | 31067 ft | 449 kts | 147° |
| 2026-04-23 16:20 | 50.39967 | 0.06360 | 31484 ft | 450 kts | 147° |
| 2026-04-23 16:20 | 50.37362 | 0.09048 | 31904 ft | 450 kts | 147° |
| 2026-04-23 16:20 | 50.34721 | 0.11776 | 32300 ft | 452 kts | 147° |
| 2026-04-23 16:21 | 50.32102 | 0.14481 | 32703 ft | 453 kts | 147° |
| 2026-04-23 16:21 | 50.29475 | 0.17191 | 33128 ft | 454 kts | 147° |
| 2026-04-23 16:21 | 50.26286 | 0.20451 | 33513 ft | 457 kts | 147° |
| 2026-04-23 16:22 | 50.23632 | 0.23173 | 33947 ft | 458 kts | 147° |
| 2026-04-23 16:22 | 50.20974 | 0.25902 | 34372 ft | 458 kts | 147° |
| 2026-04-23 16:22 | 50.18311 | 0.28641 | 34741 ft | 459 kts | 147° |
| 2026-04-23 16:22 | 50.15641 | 0.31393 | 35128 ft | 459 kts | 147° |
| 2026-04-23 16:23 | 50.12969 | 0.34147 | 35535 ft | 459 kts | 147° |
| 2026-04-23 16:23 | 50.10311 | 0.36884 | 35952 ft | 458 kts | 147° |
| 2026-04-23 16:23 | 50.07651 | 0.39610 | 36353 ft | 457 kts | 147° |
| 2026-04-23 16:23 | 50.05887 | 0.41415 | 36596 ft | 457 kts | 147° |
| 2026-04-23 16:24 | 50.03239 | 0.44123 | 36973 ft | 456 kts | 147° |
| 2026-04-23 16:24 | 49.99720 | 0.47715 | 37463 ft | 455 kts | 147° |
| 2026-04-23 16:24 | 49.97933 | 0.49534 | 37703 ft | 455 kts | 147° |
| 2026-04-23 16:24 | 49.95277 | 0.52237 | 38062 ft | 455 kts | 147° |
| 2026-04-23 16:25 | 49.92638 | 0.54925 | 38408 ft | 454 kts | 147° |
| 2026-04-23 16:25 | 49.89997 | 0.57612 | 38754 ft | 453 kts | 147° |
| 2026-04-23 16:25 | 49.87369 | 0.60301 | 39050 ft | 453 kts | 144° |
| 2026-04-23 16:25 | 49.84949 | 0.63344 | 39255 ft | 453 kts | 136° |
| 2026-04-23 16:26 | 49.80611 | 0.70605 | 39318 ft | 459 kts | 132° |
| 2026-04-23 16:26 | 49.76312 | 0.77903 | 39320 ft | 461 kts | 132° |
| 2026-04-23 16:27 | 49.71993 | 0.85191 | 39312 ft | 461 kts | 132° |
| 2026-04-23 16:27 | 49.67654 | 0.92495 | 39312 ft | 461 kts | 132° |
| 2026-04-23 16:28 | 49.63314 | 0.99776 | 39311 ft | 462 kts | 132° |
| 2026-04-23 16:28 | 49.58969 | 1.07055 | 39312 ft | 462 kts | 132° |
| 2026-04-23 16:29 | 49.54611 | 1.14341 | 39314 ft | 463 kts | 132° |
| 2026-04-23 16:29 | 49.50231 | 1.21634 | 39318 ft | 463 kts | 132° |
| 2026-04-23 16:30 | 49.45843 | 1.28917 | 39318 ft | 463 kts | 132° |
| 2026-04-23 16:30 | 49.41467 | 1.36178 | 39317 ft | 463 kts | 133° |
| 2026-04-23 16:31 | 49.37104 | 1.43377 | 39316 ft | 464 kts | 133° |
| 2026-04-23 16:31 | 49.32691 | 1.50639 | 39319 ft | 464 kts | 133° |
| 2026-04-23 16:32 | 49.28303 | 1.57849 | 39319 ft | 464 kts | 133° |
| 2026-04-23 16:32 | 49.23915 | 1.65043 | 39311 ft | 464 kts | 133° |
| 2026-04-23 16:33 | 49.19506 | 1.72251 | 39303 ft | 464 kts | 133° |
| 2026-04-23 16:33 | 49.15076 | 1.79457 | 39299 ft | 464 kts | 133° |
| 2026-04-23 16:34 | 49.10668 | 1.86611 | 39293 ft | 464 kts | 133° |
| 2026-04-23 16:34 | 49.06258 | 1.93757 | 39295 ft | 464 kts | 133° |
| 2026-04-23 16:35 | 49.01816 | 2.00939 | 39292 ft | 464 kts | 133° |
| 2026-04-23 16:35 | 48.97405 | 2.08043 | 39293 ft | 464 kts | 133° |
| 2026-04-23 16:36 | 48.92951 | 2.15197 | 39294 ft | 464 kts | 133° |
| 2026-04-23 16:36 | 48.88511 | 2.22294 | 39297 ft | 464 kts | 133° |
| 2026-04-23 16:37 | 48.84079 | 2.29367 | 39286 ft | 464 kts | 133° |
| 2026-04-23 16:37 | 48.79620 | 2.36471 | 39290 ft | 464 kts | 133° |
| 2026-04-23 16:38 | 48.75173 | 2.43540 | 39287 ft | 464 kts | 133° |
| 2026-04-23 16:38 | 48.70740 | 2.50565 | 39289 ft | 464 kts | 133° |
| 2026-04-23 16:39 | 48.66266 | 2.57638 | 39289 ft | 464 kts | 133° |
| 2026-04-23 16:39 | 48.61819 | 2.64649 | 39290 ft | 464 kts | 133° |
| 2026-04-23 16:40 | 48.57691 | 2.72102 | 39288 ft | 461 kts | 119° |
| 2026-04-23 16:40 | 48.55304 | 2.80977 | 39288 ft | 456 kts | 99° |
| 2026-04-23 16:41 | 48.54730 | 2.90386 | 39282 ft | 452 kts | 90° |
| 2026-04-23 16:41 | 48.54422 | 2.99877 | 39290 ft | 453 kts | 90° |
| 2026-04-23 16:42 | 48.54098 | 3.09365 | 39284 ft | 453 kts | 90° |
| 2026-04-23 16:42 | 48.53754 | 3.18892 | 39289 ft | 454 kts | 90° |
| 2026-04-23 16:43 | 48.53406 | 3.28368 | 39290 ft | 454 kts | 91° |
| 2026-04-23 16:43 | 48.53056 | 3.37864 | 39295 ft | 454 kts | 90° |
| 2026-04-23 16:44 | 48.52701 | 3.47406 | 39297 ft | 454 kts | 91° |
| 2026-04-23 16:44 | 48.52339 | 3.56859 | 39294 ft | 454 kts | 91° |
| 2026-04-23 16:45 | 48.51960 | 3.66344 | 39298 ft | 454 kts | 91° |
| 2026-04-23 16:45 | 48.51576 | 3.75878 | 39302 ft | 454 kts | 91° |
| 2026-04-23 16:46 | 48.51196 | 3.85356 | 39299 ft | 454 kts | 91° |
| 2026-04-23 16:46 | 48.50799 | 3.94830 | 39303 ft | 454 kts | 91° |
| 2026-04-23 16:47 | 48.50103 | 4.04278 | 39297 ft | 457 kts | 102° |
| 2026-04-23 16:47 | 48.48433 | 4.13503 | 39301 ft | 457 kts | 103° |
| 2026-04-23 16:48 | 48.46745 | 4.22779 | 39298 ft | 458 kts | 103° |
| 2026-04-23 16:48 | 48.45065 | 4.31968 | 39302 ft | 458 kts | 103° |
| 2026-04-23 16:49 | 48.43364 | 4.41200 | 39297 ft | 458 kts | 103° |
| 2026-04-23 16:49 | 48.41646 | 4.50472 | 39299 ft | 458 kts | 103° |
| 2026-04-23 16:50 | 48.39931 | 4.59687 | 39296 ft | 459 kts | 103° |
| 2026-04-23 16:50 | 48.38211 | 4.68896 | 39295 ft | 459 kts | 103° |
| 2026-04-23 16:51 | 48.36473 | 4.78140 | 39291 ft | 459 kts | 103° |
| 2026-04-23 16:51 | 48.34724 | 4.87390 | 39305 ft | 459 kts | 103° |
| 2026-04-23 16:52 | 48.32980 | 4.96605 | 39301 ft | 460 kts | 103° |
| 2026-04-23 16:52 | 48.31217 | 5.05867 | 39294 ft | 460 kts | 103° |
| 2026-04-23 16:53 | 48.29441 | 5.15088 | 39288 ft | 460 kts | 104° |
| 2026-04-23 16:53 | 48.27628 | 5.24316 | 39288 ft | 460 kts | 104° |
| 2026-04-23 16:54 | 48.25765 | 5.33534 | 39289 ft | 461 kts | 104° |
| 2026-04-23 16:54 | 48.23892 | 5.42715 | 39291 ft | 461 kts | 104° |
| 2026-04-23 16:55 | 48.22022 | 5.51938 | 39289 ft | 462 kts | 104° |
| 2026-04-23 16:55 | 48.20157 | 5.61127 | 39291 ft | 462 kts | 104° |
| 2026-04-23 16:56 | 48.18271 | 5.70332 | 39289 ft | 462 kts | 104° |
| 2026-04-23 16:56 | 48.16377 | 5.79511 | 39291 ft | 463 kts | 104° |
| 2026-04-23 16:57 | 48.14480 | 5.88675 | 39290 ft | 463 kts | 104° |
| 2026-04-23 16:57 | 48.12565 | 5.97911 | 39291 ft | 463 kts | 104° |
| 2026-04-23 16:58 | 48.10651 | 6.07103 | 39293 ft | 463 kts | 105° |
| 2026-04-23 16:58 | 48.08719 | 6.16312 | 39292 ft | 463 kts | 105° |
| 2026-04-23 16:59 | 48.06780 | 6.25515 | 39290 ft | 464 kts | 105° |
| 2026-04-23 16:59 | 48.04839 | 6.34686 | 39295 ft | 464 kts | 105° |
| 2026-04-23 17:00 | 48.02889 | 6.43873 | 39294 ft | 464 kts | 105° |
| 2026-04-23 17:00 | 48.00927 | 6.53061 | 39293 ft | 464 kts | 105° |
| 2026-04-23 17:01 | 47.98962 | 6.62241 | 39294 ft | 464 kts | 105° |
| 2026-04-23 17:01 | 47.96946 | 6.71319 | 39370 ft | 463 kts | 107° |
| 2026-04-23 17:02 | 47.94642 | 6.80337 | 39647 ft | 465 kts | 110° |
| 2026-04-23 17:02 | 47.93393 | 6.84767 | 39822 ft | 465 kts | 111° |
| 2026-04-23 17:02 | 47.92069 | 6.89183 | 40022 ft | 465 kts | 112° |
| 2026-04-23 17:03 | 47.90682 | 6.93536 | 40242 ft | 465 kts | 114° |
| 2026-04-23 17:03 | 47.89224 | 6.97860 | 40493 ft | 464 kts | 115° |
| 2026-04-23 17:03 | 47.87723 | 7.02070 | 40755 ft | 464 kts | 116° |
| 2026-04-23 17:03 | 47.86142 | 7.06269 | 41034 ft | 463 kts | 118° |
| 2026-04-23 17:04 | 47.84513 | 7.10373 | 41344 ft | 460 kts | 119° |
| 2026-04-23 17:04 | 47.82831 | 7.14394 | 41679 ft | 457 kts | 121° |
| 2026-04-23 17:04 | 47.81100 | 7.18323 | 42033 ft | 453 kts | 122° |
| 2026-04-23 17:04 | 47.79307 | 7.22193 | 42392 ft | 449 kts | 123° |
| 2026-04-23 17:05 | 47.77490 | 7.25917 | 42781 ft | 443 kts | 125° |
| 2026-04-23 17:05 | 47.75657 | 7.29491 | 43176 ft | 437 kts | 126° |
| 2026-04-23 17:05 | 47.73759 | 7.33008 | 43608 ft | 430 kts | 128° |
| 2026-04-23 17:05 | 47.71857 | 7.36356 | 44006 ft | 422 kts | 129° |
| 2026-04-23 17:06 | 47.69911 | 7.39608 | 44412 ft | 413 kts | 131° |
| 2026-04-23 17:06 | 47.67956 | 7.42711 | 44709 ft | 407 kts | 132° |
| 2026-04-23 17:06 | 47.63912 | 7.48671 | 44106 ft | 419 kts | 133° |
| 2026-04-23 17:07 | 47.62822 | 7.50226 | 43195 ft | 438 kts | 134° |
| 2026-04-23 17:07 | 47.60654 | 7.53490 | 42432 ft | 449 kts | 129° |
| 2026-04-23 17:07 | 47.58699 | 7.57153 | 41877 ft | 456 kts | 121° |
| 2026-04-23 17:07 | 47.57061 | 7.61192 | 41331 ft | 458 kts | 115° |
| 2026-04-23 17:08 | 47.55376 | 7.65194 | 40906 ft | 461 kts | 128° |
| 2026-04-23 17:08 | 47.53150 | 7.68621 | 40545 ft | 462 kts | 140° |
| 2026-04-23 17:08 | 47.50476 | 7.71250 | 40103 ft | 464 kts | 154° |
| 2026-04-23 17:08 | 47.47558 | 7.73297 | 39650 ft | 466 kts | 155° |
| 2026-04-23 17:09 | 47.44629 | 7.75331 | 39330 ft | 466 kts | 155° |
| 2026-04-23 17:09 | 47.41677 | 7.77385 | 39225 ft | 464 kts | 155° |
| 2026-04-23 17:09 | 47.35848 | 7.81445 | 39256 ft | 469 kts | 155° |
| 2026-04-23 17:10 | 47.29965 | 7.85532 | 39257 ft | 471 kts | 155° |
| 2026-04-23 17:10 | 47.24003 | 7.89679 | 39259 ft | 477 kts | 155° |
| 2026-04-23 17:11 | 47.17937 | 7.93877 | 39246 ft | 480 kts | 155° |
| 2026-04-23 17:11 | 47.11959 | 7.97999 | 39249 ft | 471 kts | 155° |
| 2026-04-23 17:12 | 47.06029 | 8.02078 | 39250 ft | 470 kts | 155° |
| 2026-04-23 17:12 | 47.00103 | 8.06143 | 39248 ft | 470 kts | 155° |
| 2026-04-23 17:13 | 46.94217 | 8.10169 | 39246 ft | 470 kts | 155° |
| 2026-04-23 17:13 | 46.88288 | 8.14220 | 39243 ft | 470 kts | 155° |
| 2026-04-23 17:14 | 46.82360 | 8.18263 | 39244 ft | 471 kts | 155° |
| 2026-04-23 17:14 | 46.76389 | 8.22326 | 39241 ft | 471 kts | 155° |
| 2026-04-23 17:15 | 46.70471 | 8.26346 | 39249 ft | 472 kts | 155° |
| 2026-04-23 17:15 | 46.64522 | 8.30356 | 39241 ft | 471 kts | 155° |
| 2026-04-23 17:16 | 46.58555 | 8.34371 | 39240 ft | 472 kts | 155° |
| 2026-04-23 17:16 | 46.53591 | 8.37721 | 39228 ft | 472 kts | 155° |
| 2026-04-23 17:17 | 46.46667 | 8.42386 | 39211 ft | 472 kts | 155° |
| 2026-04-23 17:17 | 46.40703 | 8.46377 | 39198 ft | 472 kts | 155° |
| 2026-04-23 17:18 | 46.32741 | 8.51678 | 39184 ft | 472 kts | 155° |
| 2026-04-23 17:19 | 46.26795 | 8.55640 | 39170 ft | 472 kts | 155° |
| 2026-04-23 17:19 | 46.20824 | 8.59615 | 39161 ft | 472 kts | 156° |
| 2026-04-23 17:20 | 46.14858 | 8.63570 | 39153 ft | 472 kts | 155° |
| 2026-04-23 17:21 | 46.03094 | 8.72002 | 39155 ft | 472 kts | 150° |
| 2026-04-23 17:21 | 45.94523 | 8.78961 | 39149 ft | 472 kts | 150° |
| 2026-04-23 17:22 | 45.85910 | 8.85706 | 39154 ft | 472 kts | 152° |
| 2026-04-23 17:23 | 45.77199 | 8.92400 | 39153 ft | 472 kts | 152° |
| 2026-04-23 17:24 | 45.68535 | 8.99118 | 39153 ft | 472 kts | 151° |
| 2026-04-23 17:24 | 45.60984 | 9.07849 | 39153 ft | 469 kts | 130° |
| 2026-04-23 17:25 | 45.54423 | 9.18174 | 39158 ft | 469 kts | 130° |
| 2026-04-23 17:26 | 45.45617 | 9.31940 | 39157 ft | 470 kts | 131° |
| 2026-04-23 17:27 | 45.39006 | 9.42227 | 39159 ft | 469 kts | 131° |
| 2026-04-23 17:27 | 45.34615 | 9.49045 | 39154 ft | 469 kts | 130° |
| 2026-04-23 17:28 | 45.30205 | 9.55889 | 39159 ft | 469 kts | 130° |
| 2026-04-23 17:28 | 45.25772 | 9.62735 | 39149 ft | 469 kts | 131° |
| 2026-04-23 17:29 | 45.21382 | 9.69490 | 39160 ft | 468 kts | 131° |
| 2026-04-23 17:30 | 45.14745 | 9.79709 | 38293 ft | 476 kts | 130° |
| 2026-04-23 17:30 | 45.10220 | 9.86686 | 35627 ft | 488 kts | 131° |
| 2026-04-23 17:30 | 45.07930 | 9.90209 | 34865 ft | 482 kts | 131° |
| 2026-04-23 17:31 | 45.05660 | 9.93686 | 34377 ft | 479 kts | 131° |
| 2026-04-23 17:31 | 45.03405 | 9.97128 | 33877 ft | 480 kts | 131° |
| 2026-04-23 17:31 | 45.01129 | 10.00599 | 33338 ft | 483 kts | 131° |
| 2026-04-23 17:31 | 44.98847 | 10.04076 | 32801 ft | 483 kts | 131° |
| 2026-04-23 17:32 | 44.96555 | 10.07568 | 32277 ft | 485 kts | 131° |
| 2026-04-23 17:32 | 44.94263 | 10.11060 | 31761 ft | 484 kts | 131° |
| 2026-04-23 17:32 | 44.91981 | 10.14534 | 31169 ft | 482 kts | 131° |
| 2026-04-23 17:32 | 44.89699 | 10.18002 | 30544 ft | 478 kts | 131° |
| 2026-04-23 17:33 | 44.87455 | 10.21347 | 29895 ft | 475 kts | 136° |
| 2026-04-23 17:33 | 44.84803 | 10.24175 | 29167 ft | 469 kts | 151° |
| 2026-04-23 17:33 | 44.81838 | 10.26001 | 28479 ft | 463 kts | 165° |
| 2026-04-23 17:33 | 44.78750 | 10.26808 | 27824 ft | 454 kts | 179° |
| 2026-04-23 17:34 | 44.75618 | 10.26627 | 27165 ft | 444 kts | 193° |
| 2026-04-23 17:34 | 44.72641 | 10.25607 | 26526 ft | 437 kts | 199° |
| 2026-04-23 17:34 | 44.66832 | 10.23345 | 25289 ft | 429 kts | 199° |
| 2026-04-23 17:35 | 44.63992 | 10.22253 | 24699 ft | 425 kts | 199° |
| 2026-04-23 17:35 | 44.58330 | 10.20087 | 23499 ft | 418 kts | 199° |
| 2026-04-23 17:35 | 44.55542 | 10.19016 | 22932 ft | 415 kts | 199° |
| 2026-04-23 17:36 | 44.52768 | 10.17946 | 22267 ft | 412 kts | 194° |
| 2026-04-23 17:36 | 44.50008 | 10.16876 | 21749 ft | 406 kts | 195° |
| 2026-04-23 17:36 | 44.47324 | 10.15838 | 21240 ft | 401 kts | 194° |
| 2026-04-23 17:36 | 44.44625 | 10.14838 | 20733 ft | 398 kts | 194° |
| 2026-04-23 17:37 | 44.41965 | 10.13895 | 20231 ft | 394 kts | 193° |
| 2026-04-23 17:37 | 44.39294 | 10.12974 | 19747 ft | 391 kts | 193° |
| 2026-04-23 17:37 | 44.34031 | 10.11155 | 18784 ft | 387 kts | 193° |
| 2026-04-23 17:38 | 44.31429 | 10.10242 | 18296 ft | 385 kts | 193° |
| 2026-04-23 17:38 | 44.28873 | 10.09339 | 17756 ft | 382 kts | 193° |
| 2026-04-23 17:38 | 44.26312 | 10.08431 | 17228 ft | 380 kts | 193° |
| 2026-04-23 17:38 | 44.23702 | 10.07637 | 16698 ft | 376 kts | 186° |
| 2026-04-23 17:39 | 44.21137 | 10.07527 | 16193 ft | 371 kts | 174° |
| 2026-04-23 17:39 | 44.18591 | 10.08077 | 15693 ft | 367 kts | 166° |
| 2026-04-23 17:39 | 44.16089 | 10.08763 | 15189 ft | 365 kts | 167° |
| 2026-04-23 17:39 | 44.13634 | 10.09426 | 14706 ft | 361 kts | 166° |
| 2026-04-23 17:40 | 44.11151 | 10.10088 | 14222 ft | 358 kts | 167° |
| 2026-04-23 17:40 | 44.08734 | 10.10729 | 13724 ft | 357 kts | 167° |
| 2026-04-23 17:40 | 44.06312 | 10.11372 | 13200 ft | 355 kts | 166° |
| 2026-04-23 17:40 | 44.03877 | 10.12018 | 12681 ft | 353 kts | 166° |
| 2026-04-23 17:41 | 44.01465 | 10.12660 | 12165 ft | 351 kts | 166° |
| 2026-04-23 17:41 | 43.96685 | 10.13938 | 11163 ft | 344 kts | 166° |
| 2026-04-23 17:41 | 43.94392 | 10.14547 | 10678 ft | 330 kts | 166° |
| 2026-04-23 17:42 | 43.90044 | 10.15694 | 9686 ft | 310 kts | 166° |
| 2026-04-23 17:42 | 43.87951 | 10.16247 | 9157 ft | 301 kts | 166° |
| 2026-04-23 17:42 | 43.85918 | 10.16787 | 8650 ft | 294 kts | 166° |
| 2026-04-23 17:43 | 43.83918 | 10.17323 | 8136 ft | 289 kts | 166° |
| 2026-04-23 17:43 | 43.81951 | 10.17850 | 7639 ft | 285 kts | 166° |
| 2026-04-23 17:43 | 43.80009 | 10.18368 | 7149 ft | 284 kts | 166° |
| 2026-04-23 17:43 | 43.78059 | 10.18885 | 6713 ft | 288 kts | 166° |
| 2026-04-23 17:44 | 43.76106 | 10.19402 | 6338 ft | 288 kts | 166° |
| 2026-04-23 17:44 | 43.74133 | 10.19927 | 5950 ft | 288 kts | 166° |
| 2026-04-23 17:44 | 43.70229 | 10.20957 | 5189 ft | 278 kts | 167° |
| 2026-04-23 17:45 | 43.68361 | 10.21447 | 4811 ft | 267 kts | 167° |
| 2026-04-23 17:45 | 43.65618 | 10.22160 | 4217 ft | 253 kts | 167° |
| 2026-04-23 17:45 | 43.63911 | 10.22606 | 3841 ft | 246 kts | 167° |
| 2026-04-23 17:46 | 43.60645 | 10.23476 | 3086 ft | 231 kts | 167° |
| 2026-04-23 17:46 | 43.59227 | 10.24256 | 2708 ft | 211 kts | 140° |
| 2026-04-23 17:46 | 43.58399 | 10.25796 | 2514 ft | 192 kts | 107° |
| 2026-04-23 17:47 | 43.58243 | 10.27514 | 2515 ft | 176 kts | 82° |
| 2026-04-23 17:47 | 43.58606 | 10.29051 | 2236 ft | 169 kts | 56° |
| 2026-04-23 17:47 | 43.60319 | 10.31130 | 1770 ft | 163 kts | 33° |
| 2026-04-23 17:48 | 43.61220 | 10.32056 | 1547 ft | 157 kts | 33° |
| 2026-04-23 17:48 | 43.62062 | 10.32924 | 1370 ft | 145 kts | 33° |
| 2026-04-23 17:48 | 43.62837 | 10.33721 | 1173 ft | 141 kts | 32° |
| 2026-04-23 17:48 | 43.63620 | 10.34525 | 990 ft | 139 kts | 33° |
| 2026-04-23 17:49 | 43.64397 | 10.35324 | 794 ft | 138 kts | 32° |
| 2026-04-23 17:49 | 43.65162 | 10.36113 | 616 ft | 137 kts | 34° |
| 2026-04-23 17:49 | 43.65909 | 10.36882 | 431 ft | 132 kts | 32° |
| 2026-04-23 17:49 | 43.66657 | 10.37652 | 243 ft | 135 kts | 33° |
| 2026-04-23 17:50 | 43.67398 | 10.38415 | 62 ft | 135 kts | 33° |
| 2026-04-23 17:50 | 43.68343 | 10.39393 | 13 ft | 18 kts | 37° |
| 2026-04-23 17:50 | 43.68452 | 10.39506 | 14 ft | 23 kts | 36° |
| 2026-04-23 17:51 | 43.68614 | 10.39662 | 13 ft | 30 kts | 34° |
| 2026-04-23 17:51 | 43.68747 | 10.39775 | 13 ft | 15 kts | 1° |
| 2026-04-23 17:51 | 43.68881 | 10.39625 | 11 ft | 14 kts | 360° |
| 2026-04-23 17:52 | 43.68959 | 10.39694 | 12 ft | 14 kts | 37° |
| 2026-04-23 17:52 | 43.69146 | 10.39876 | 14 ft | 18 kts | 33° |
| 2026-04-23 17:52 | 43.69258 | 10.39906 | 15 ft | 17 kts | 355° |
| 2026-04-23 17:53 | 43.69521 | 10.39907 | 15 ft | 21 kts | 12° |
| 2026-04-23 17:53 | 43.69653 | 10.39941 | 14 ft | 17 kts | 10° |
| 2026-04-23 17:53 | 43.69678 | 10.39947 | 14 ft | 0 kts | 10° |
| 2026-04-23 17:54 | 43.69712 | 10.39956 | 16 ft | 25 kts | 11° |
| 2026-04-23 17:54 | 43.69770 | 10.39971 | 15 ft | 0 kts | 10° |